Aérodrome :
LOGIN :

S'inscrire | Disclaimer

   EN    FR    IT 

 










Légende :    VFR   VFR Marginal   IFR   IFR Intensif   IFR Très Intensif
Visi : 
Plafond : 
>= 8 km
>= 3000ft
5 à 8 km
1000 à 3000 ft
1500m à 5 km
500 à 1000 ft
800 à 1500m
200 à 500 ft
< 800m
< 200 ft
Symboles :   Orages  Brouillard  Fortes neiges  Fortes précipitations  Vent > 20 kt
SIGMETs :   Divers  Orages  Givrage  Turbulence  Onde Orograph.  Cendres Volcan.






- Altitude de l'aérodrome : 512 ft
- Code IATA : URO


LFOP - Rouen Vallée de Seine

DERNIER METAR :
  • 061100Z AUTO 26014KT 230V310 9999 SCT039 BKN048 BKN066 14/05 Q1004 TEMPO 27015G25KT 4000 SHRA BKN030TCU

METARs EXPIRÉS :
  • 061030Z AUTO 26016KT 9999 SCT041 BKN048 BKN056 14/06 Q1004 TEMPO 27015G25KT 4000 SHRA BKN030TCU
  • 061000Z AUTO 27015KT 250V310 9999 BKN036 BKN056 13/07 Q1004 TEMPO 27015G25KT 4000 SHRA BKN030TCU
  • 060930Z AUTO 28013KT 240V330 9999 FEW031 SCT060 BKN072 13/08 Q1004 TEMPO 27015G25KT 4000 SHRA BKN030TCU
  • 060900Z AUTO 27013KT 9999 -RA FEW030 BKN038 BKN048 10/07 Q1004 TEMPO 27015G25KT 4000 SHRA BKN030TCU
  • 060830Z AUTO 27010KT 250V310 9999 SCT034/// SCT040/// BKN046/// ///TCU 13/08 Q1003 TEMPO 27015G25KT 4000 SHRA

TAF TAF LFOP
Valide du 06 à 06h jusqu'au 07 à 06h UTC


060500Z 0606/0706 27012KT 9999 SCT030
TEMPO 0606/0608 4000 SHRA BKN013
TEMPO 0609/0614 27015G25KT 4000 SHRA BKN030TCU
TEMPO 0622/0706 3000 RA BKN012
ATIS : +33 2 35 80 80 34
Météo : +33 2 32 86 52 80



MET'MAP, la Météo Aéronautique d'un coup d'oeil ! - Copyright ORBIFLY Décembre 2007 - Disclaimer

ORBIFLY MET'MAP TEAM :

Programmation & Développement : Alexandra Zaïnal
Sur une idée originale de : Baudouin d'Aumeries
Assistance à la programmation : Marc-Olivier Méhu
Soutien technique & logistique : Manuel Goepfert

Contact : metmap@orbifly.com




SOURCES & CREDITS :

   NOAA